sensor_id;sensor_type;location;lat;lon;timestamp;pressure;altitude;pressure_sealevel;temperature;humidity
6565;BME280;3316;44.118;27.258;2022-10-31T00:00:17;101399.25;;;16.55;100.00
6565;BME280;3316;44.118;27.258;2022-10-31T00:02:43;101394.97;;;16.47;100.00
6565;BME280;3316;44.118;27.258;2022-10-31T00:05:09;101397.69;;;16.44;100.00
6565;BME280;3316;44.118;27.258;2022-10-31T00:07:34;101394.38;;;16.34;100.00
6565;BME280;3316;44.118;27.258;2022-10-31T00:09:59;101396.72;;;16.46;100.00
6565;BME280;3316;44.118;27.258;2022-10-31T00:12:26;101367.94;;;16.28;100.00
6565;BME280;3316;44.118;27.258;2022-10-31T00:14:53;101408.94;;;16.56;100.00
6565;BME280;3316;44.118;27.258;2022-10-31T00:17:18;101404.69;;;16.46;100.00
6565;BME280;3316;44.118;27.258;2022-10-31T00:19:43;101395.13;;;16.39;100.00
6565;BME280;3316;44.118;27.258;2022-10-31T00:22:10;101417.25;;;16.40;100.00
6565;BME280;3316;44.118;27.258;2022-10-31T00:24:35;101400.38;;;16.42;100.00
6565;BME280;3316;44.118;27.258;2022-10-31T00:27:01;101399.38;;;16.49;100.00
6565;BME280;3316;44.118;27.258;2022-10-31T00:29:26;101391.31;;;16.54;100.00
6565;BME280;3316;44.118;27.258;2022-10-31T00:31:52;101393.53;;;16.32;100.00
6565;BME280;3316;44.118;27.258;2022-10-31T00:34:18;101401.75;;;16.20;100.00
6565;BME280;3316;44.118;27.258;2022-10-31T00:36:43;101387.81;;;16.11;100.00
6565;BME280;3316;44.118;27.258;2022-10-31T00:39:09;101396.66;;;16.10;100.00
6565;BME280;3316;44.118;27.258;2022-10-31T00:41:34;101401.00;;;16.14;100.00
6565;BME280;3316;44.118;27.258;2022-10-31T00:43:59;101411.56;;;16.15;100.00
6565;BME280;3316;44.118;27.258;2022-10-31T00:46:25;101409.75;;;16.17;100.00
6565;BME280;3316;44.118;27.258;2022-10-31T00:48:50;101384.00;;;16.22;100.00
6565;BME280;3316;44.118;27.258;2022-10-31T00:51:16;101374.09;;;16.29;100.00
6565;BME280;3316;44.118;27.258;2022-10-31T00:53:41;101385.72;;;16.25;100.00
6565;BME280;3316;44.118;27.258;2022-10-31T00:56:07;101383.16;;;16.20;100.00
6565;BME280;3316;44.118;27.258;2022-10-31T00:58:32;101385.69;;;16.26;100.00
6565;BME280;3316;44.118;27.258;2022-10-31T01:00:58;101382.16;;;16.26;100.00
6565;BME280;3316;44.118;27.258;2022-10-31T01:03:25;101390.94;;;16.29;100.00
6565;BME280;3316;44.118;27.258;2022-10-31T01:06:01;101391.00;;;16.26;100.00
6565;BME280;3316;44.118;27.258;2022-10-31T01:08:28;101385.72;;;16.25;100.00
6565;BME280;3316;44.118;27.258;2022-10-31T01:11:10;101384.50;;;15.98;100.00
6565;BME280;3316;44.118;27.258;2022-10-31T01:13:37;101406.50;;;16.04;100.00
6565;BME280;3316;44.118;27.258;2022-10-31T01:16:04;101402.38;;;15.91;100.00
6565;BME280;3316;44.118;27.258;2022-10-31T01:18:30;101414.66;;;15.94;100.00
6565;BME280;3316;44.118;27.258;2022-10-31T01:21:03;101413.94;;;15.86;100.00
6565;BME280;3316;44.118;27.258;2022-10-31T01:23:29;101429.97;;;15.80;100.00
6565;BME280;3316;44.118;27.258;2022-10-31T01:26:10;101416.94;;;15.69;100.00
6565;BME280;3316;44.118;27.258;2022-10-31T01:28:38;101426.66;;;15.69;100.00
6565;BME280;3316;44.118;27.258;2022-10-31T01:31:06;101415.34;;;15.59;100.00
6565;BME280;3316;44.118;27.258;2022-10-31T01:33:33;101424.41;;;15.48;100.00
6565;BME280;3316;44.118;27.258;2022-10-31T01:35:58;101424.66;;;15.31;100.00
6565;BME280;3316;44.118;27.258;2022-10-31T01:38:24;101432.50;;;15.39;100.00
6565;BME280;3316;44.118;27.258;2022-10-31T01:40:50;101427.13;;;15.43;100.00
6565;BME280;3316;44.118;27.258;2022-10-31T01:43:16;101367.75;;;15.01;100.00
6565;BME280;3316;44.118;27.258;2022-10-31T01:45:59;101418.63;;;15.22;100.00
6565;BME280;3316;44.118;27.258;2022-10-31T01:48:27;101390.56;;;15.11;100.00
6565;BME280;3316;44.118;27.258;2022-10-31T01:50:54;101408.19;;;15.12;100.00
6565;BME280;3316;44.118;27.258;2022-10-31T01:53:20;101419.53;;;15.22;100.00
6565;BME280;3316;44.118;27.258;2022-10-31T01:55:46;101393.06;;;15.17;100.00
6565;BME280;3316;44.118;27.258;2022-10-31T01:58:15;101407.06;;;15.26;100.00
6565;BME280;3316;44.118;27.258;2022-10-31T02:00:46;101413.97;;;15.36;100.00
6565;BME280;3316;44.118;27.258;2022-10-31T02:03:15;101406.84;;;15.39;100.00
6565;BME280;3316;44.118;27.258;2022-10-31T02:05:41;101398.03;;;15.37;100.00
6565;BME280;3316;44.118;27.258;2022-10-31T02:08:27;101409.44;;;15.44;100.00
6565;BME280;3316;44.118;27.258;2022-10-31T02:10:54;101406.88;;;15.38;100.00
6565;BME280;3316;44.118;27.258;2022-10-31T02:13:21;101420.94;;;15.41;100.00
6565;BME280;3316;44.118;27.258;2022-10-31T02:15:51;101417.44;;;15.41;100.00
6565;BME280;3316;44.118;27.258;2022-10-31T02:18:18;101426.03;;;15.56;100.00
6565;BME280;3316;44.118;27.258;2022-10-31T02:34:24;101454.66;;;15.33;100.00
6565;BME280;3316;44.118;27.258;2022-10-31T02:37:18;101466.16;;;15.34;100.00
6565;BME280;3316;44.118;27.258;2022-10-31T02:48:16;101471.03;;;15.07;100.00
6565;BME280;3316;44.118;27.258;2022-10-31T02:50:49;101451.72;;;14.98;100.00
6565;BME280;3316;44.118;27.258;2022-10-31T02:53:17;101472.59;;;15.19;100.00
6565;BME280;3316;44.118;27.258;2022-10-31T02:55:49;101468.06;;;15.26;100.00
6565;BME280;3316;44.118;27.258;2022-10-31T02:58:20;101462.84;;;15.19;100.00
6565;BME280;3316;44.118;27.258;2022-10-31T03:03:20;101485.03;;;15.14;100.00
6565;BME280;3316;44.118;27.258;2022-10-31T03:11:02;101477.38;;;14.94;100.00
6565;BME280;3316;44.118;27.258;2022-10-31T03:16:23;101467.66;;;14.95;100.00
6565;BME280;3316;44.118;27.258;2022-10-31T03:21:29;101417.03;;;14.57;100.00
6565;BME280;3316;44.118;27.258;2022-10-31T03:23:56;101487.13;;;14.92;100.00
6565;BME280;3316;44.118;27.258;2022-10-31T03:26:23;101475.69;;;14.90;100.00
6565;BME280;3316;44.118;27.258;2022-10-31T03:29:00;101450.41;;;14.68;100.00
6565;BME280;3316;44.118;27.258;2022-10-31T03:31:29;101486.38;;;14.83;100.00
6565;BME280;3316;44.118;27.258;2022-10-31T03:33:58;101491.66;;;14.84;100.00
6565;BME280;3316;44.118;27.258;2022-10-31T03:36:26;101453.13;;;14.62;100.00
6565;BME280;3316;44.118;27.258;2022-10-31T03:38:52;101483.81;;;14.80;100.00
6565;BME280;3316;44.118;27.258;2022-10-31T03:41:21;101487.97;;;14.94;100.00
6565;BME280;3316;44.118;27.258;2022-10-31T03:43:55;101475.88;;;14.77;100.00
6565;BME280;3316;44.118;27.258;2022-10-31T03:46:23;101477.56;;;14.82;100.00
6565;BME280;3316;44.118;27.258;2022-10-31T03:48:49;101448.72;;;14.61;100.00
6565;BME280;3316;44.118;27.258;2022-10-31T03:56:44;101498.28;;;14.55;100.00
6565;BME280;3316;44.118;27.258;2022-10-31T03:59:21;101511.34;;;14.65;100.00
6565;BME280;3316;44.118;27.258;2022-10-31T04:01:51;101510.59;;;14.59;100.00
6565;BME280;3316;44.118;27.258;2022-10-31T04:04:19;101503.50;;;14.58;100.00
6565;BME280;3316;44.118;27.258;2022-10-31T04:06:46;101507.06;;;14.57;100.00
6565;BME280;3316;44.118;27.258;2022-10-31T04:09:13;101490.25;;;14.59;100.00
6565;BME280;3316;44.118;27.258;2022-10-31T04:11:44;101501.78;;;14.57;100.00
6565;BME280;3316;44.118;27.258;2022-10-31T04:14:11;101513.28;;;14.54;100.00
6565;BME280;3316;44.118;27.258;2022-10-31T04:16:41;101514.25;;;14.46;100.00
6565;BME280;3316;44.118;27.258;2022-10-31T04:19:08;101524.00;;;14.42;100.00
6565;BME280;3316;44.118;27.258;2022-10-31T04:21:33;101516.03;;;14.47;100.00
6565;BME280;3316;44.118;27.258;2022-10-31T04:23:58;101527.59;;;14.38;100.00
6565;BME280;3316;44.118;27.258;2022-10-31T04:26:24;101524.09;;;14.35;100.00
6565;BME280;3316;44.118;27.258;2022-10-31T04:28:50;101538.16;;;14.40;100.00
6565;BME280;3316;44.118;27.258;2022-10-31T04:31:16;101538.28;;;14.26;100.00
6565;BME280;3316;44.118;27.258;2022-10-31T04:33:42;101507.63;;;14.05;100.00
6565;BME280;3316;44.118;27.258;2022-10-31T04:36:07;101547.13;;;14.25;100.00
6565;BME280;3316;44.118;27.258;2022-10-31T04:38:33;101539.31;;;14.13;100.00
6565;BME280;3316;44.118;27.258;2022-10-31T04:40:59;101549.91;;;14.13;100.00
6565;BME280;3316;44.118;27.258;2022-10-31T04:43:24;101540.22;;;14.09;100.00
6565;BME280;3316;44.118;27.258;2022-10-31T04:45:50;101550.00;;;14.04;100.00
6565;BME280;3316;44.118;27.258;2022-10-31T04:48:15;101558.94;;;13.89;100.00
6565;BME280;3316;44.118;27.258;2022-10-31T04:50:41;101555.53;;;13.75;100.00
6565;BME280;3316;44.118;27.258;2022-10-31T04:53:07;101571.34;;;13.84;100.00
6565;BME280;3316;44.118;27.258;2022-10-31T04:55:32;101573.19;;;13.73;100.00
6565;BME280;3316;44.118;27.258;2022-10-31T04:57:58;101567.09;;;13.64;100.00
6565;BME280;3316;44.118;27.258;2022-10-31T05:00:24;101565.25;;;13.73;100.00
6565;BME280;3316;44.118;27.258;2022-10-31T05:02:54;101564.38;;;13.71;100.00
6565;BME280;3316;44.118;27.258;2022-10-31T05:05:22;101568.84;;;13.68;100.00
6565;BME280;3316;44.118;27.258;2022-10-31T05:07:48;101560.03;;;13.66;100.00
6565;BME280;3316;44.118;27.258;2022-10-31T05:10:18;101556.53;;;13.67;100.00
6565;BME280;3316;44.118;27.258;2022-10-31T05:12:53;101575.75;;;13.84;100.00
6565;BME280;3316;44.118;27.258;2022-10-31T05:15:21;101576.53;;;13.95;100.00
6565;BME280;3316;44.118;27.258;2022-10-31T05:17:47;101574.66;;;14.04;100.00
6565;BME280;3316;44.118;27.258;2022-10-31T05:20:15;101568.47;;;14.10;100.00
6565;BME280;3316;44.118;27.258;2022-10-31T05:22:45;101563.22;;;14.04;100.00
6565;BME280;3316;44.118;27.258;2022-10-31T05:25:11;101521.88;;;14.71;100.00
6565;BME280;3316;44.118;27.258;2022-10-31T05:27:41;101585.88;;;16.66;100.00
6565;BME280;3316;44.118;27.258;2022-10-31T05:30:07;101572.84;;;18.39;100.00
6565;BME280;3316;44.118;27.258;2022-10-31T05:35:06;101582.44;;;20.91;100.00
6565;BME280;3316;44.118;27.258;2022-10-31T05:37:34;101582.22;;;21.86;95.25
6565;BME280;3316;44.118;27.258;2022-10-31T05:39:59;101575.34;;;23.00;86.65
6565;BME280;3316;44.118;27.258;2022-10-31T05:42:25;101558.06;;;23.61;74.81
6565;BME280;3316;44.118;27.258;2022-10-31T05:44:50;101576.00;;;24.31;70.96
6565;BME280;3316;44.118;27.258;2022-10-31T05:47:15;101591.25;;;24.82;64.58
6565;BME280;3316;44.118;27.258;2022-10-31T05:49:41;101594.66;;;25.65;58.65
6565;BME280;3316;44.118;27.258;2022-10-31T05:52:06;101600.22;;;26.52;52.13
6565;BME280;3316;44.118;27.258;2022-10-31T05:54:31;101602.75;;;27.25;48.00
6565;BME280;3316;44.118;27.258;2022-10-31T05:56:57;101604.31;;;27.44;46.37
6565;BME280;3316;44.118;27.258;2022-10-31T05:59:22;101610.13;;;28.05;44.70
6565;BME280;3316;44.118;27.258;2022-10-31T06:01:48;101624.03;;;28.77;42.71
6565;BME280;3316;44.118;27.258;2022-10-31T06:04:13;101613.94;;;29.04;41.26
6565;BME280;3316;44.118;27.258;2022-10-31T06:06:39;101611.41;;;29.88;39.29
6565;BME280;3316;44.118;27.258;2022-10-31T06:09:04;101614.72;;;30.85;37.87
6565;BME280;3316;44.118;27.258;2022-10-31T06:11:29;101623.78;;;31.40;35.74
6565;BME280;3316;44.118;27.258;2022-10-31T06:13:55;101623.78;;;32.05;34.27
6565;BME280;3316;44.118;27.258;2022-10-31T06:16:20;101619.34;;;32.57;33.71
6565;BME280;3316;44.118;27.258;2022-10-31T06:18:46;101635.00;;;32.85;33.22
6565;BME280;3316;44.118;27.258;2022-10-31T06:21:12;101630.69;;;33.03;31.46
6565;BME280;3316;44.118;27.258;2022-10-31T06:23:37;101639.78;;;33.43;31.38
6565;BME280;3316;44.118;27.258;2022-10-31T06:26:03;101643.25;;;33.45;30.86
6565;BME280;3316;44.118;27.258;2022-10-31T06:28:28;101659.03;;;33.81;30.81
6565;BME280;3316;44.118;27.258;2022-10-31T06:30:53;101655.22;;;34.60;29.93
6565;BME280;3316;44.118;27.258;2022-10-31T06:33:19;101662.47;;;33.44;32.21
6565;BME280;3316;44.118;27.258;2022-10-31T06:35:46;101668.91;;;33.33;31.62
6565;BME280;3316;44.118;27.258;2022-10-31T06:38:12;101668.00;;;34.02;31.10
6565;BME280;3316;44.118;27.258;2022-10-31T06:40:37;101672.63;;;34.12;30.60
6565;BME280;3316;44.118;27.258;2022-10-31T06:43:02;101672.66;;;34.40;29.65
6565;BME280;3316;44.118;27.258;2022-10-31T06:45:28;101678.53;;;34.36;29.96
6565;BME280;3316;44.118;27.258;2022-10-31T06:47:54;101682.41;;;34.24;30.43
6565;BME280;3316;44.118;27.258;2022-10-31T06:50:21;101674.03;;;34.06;30.48
6565;BME280;3316;44.118;27.258;2022-10-31T06:52:54;101668.91;;;34.32;30.22
6565;BME280;3316;44.118;27.258;2022-10-31T06:55:20;101664.56;;;34.20;30.36
6565;BME280;3316;44.118;27.258;2022-10-31T06:58:00;101678.66;;;34.91;29.83
6565;BME280;3316;44.118;27.258;2022-10-31T07:00:28;101667.13;;;34.88;29.06
6565;BME280;3316;44.118;27.258;2022-10-31T07:03:02;101658.94;;;35.44;29.12
6565;BME280;3316;44.118;27.258;2022-10-31T07:05:28;101674.22;;;35.91;28.43
6565;BME280;3316;44.118;27.258;2022-10-31T07:07:59;101671.84;;;35.61;28.37
6565;BME280;3316;44.118;27.258;2022-10-31T07:10:27;101675.66;;;36.05;28.39
6565;BME280;3316;44.118;27.258;2022-10-31T07:13:00;101676.13;;;36.35;27.96
6565;BME280;3316;44.118;27.258;2022-10-31T07:15:26;101661.00;;;36.31;27.77
6565;BME280;3316;44.118;27.258;2022-10-31T07:17:53;101670.72;;;37.04;27.08
6565;BME280;3316;44.118;27.258;2022-10-31T07:20:19;101678.22;;;37.54;26.19
6565;BME280;3316;44.118;27.258;2022-10-31T07:22:44;101684.56;;;37.80;26.12
6565;BME280;3316;44.118;27.258;2022-10-31T07:25:10;101679.94;;;37.96;25.90
6565;BME280;3316;44.118;27.258;2022-10-31T07:27:37;101677.66;;;38.33;25.56
6565;BME280;3316;44.118;27.258;2022-10-31T07:30:03;101684.22;;;38.73;25.05
6565;BME280;3316;44.118;27.258;2022-10-31T07:32:37;101670.63;;;38.79;24.64
6565;BME280;3316;44.118;27.258;2022-10-31T07:35:03;101673.53;;;38.38;24.67
6565;BME280;3316;44.118;27.258;2022-10-31T07:37:28;101679.91;;;38.38;25.20
6565;BME280;3316;44.118;27.258;2022-10-31T07:39:54;101672.66;;;38.21;25.37
6565;BME280;3316;44.118;27.258;2022-10-31T07:42:20;101682.47;;;38.48;25.17
6565;BME280;3316;44.118;27.258;2022-10-31T07:44:48;101689.44;;;38.10;24.80
6565;BME280;3316;44.118;27.258;2022-10-31T07:47:13;101674.38;;;38.22;24.63
6565;BME280;3316;44.118;27.258;2022-10-31T07:49:39;101689.19;;;38.61;24.76
6565;BME280;3316;44.118;27.258;2022-10-31T07:52:04;101674.59;;;39.09;23.96
6565;BME280;3316;44.118;27.258;2022-10-31T07:54:30;101684.75;;;39.63;23.61
6565;BME280;3316;44.118;27.258;2022-10-31T07:56:55;101671.47;;;38.80;24.35
6565;BME280;3316;44.118;27.258;2022-10-31T07:59:20;101680.44;;;39.61;23.34
6565;BME280;3316;44.118;27.258;2022-10-31T08:01:46;101674.66;;;39.40;23.69
6565;BME280;3316;44.118;27.258;2022-10-31T08:04:11;101672.16;;;39.69;23.77
6565;BME280;3316;44.118;27.258;2022-10-31T08:06:37;101672.50;;;39.66;22.81
6565;BME280;3316;44.118;27.258;2022-10-31T08:09:02;101676.94;;;39.75;23.30
6565;BME280;3316;44.118;27.258;2022-10-31T08:11:28;101672.16;;;38.98;23.81
6565;BME280;3316;44.118;27.258;2022-10-31T08:13:53;101631.31;;;39.26;23.23
6565;BME280;3316;44.118;27.258;2022-10-31T08:16:19;101681.44;;;38.57;23.76
6565;BME280;3316;44.118;27.258;2022-10-31T08:18:44;101664.78;;;38.74;24.36
6565;BME280;3316;44.118;27.258;2022-10-31T08:21:09;101675.59;;;39.00;24.07
6565;BME280;3316;44.118;27.258;2022-10-31T08:23:35;101679.00;;;39.26;23.60
6565;BME280;3316;44.118;27.258;2022-10-31T08:26:01;101674.25;;;39.51;23.48
6565;BME280;3316;44.118;27.258;2022-10-31T08:28:26;101681.56;;;39.82;23.03
6565;BME280;3316;44.118;27.258;2022-10-31T08:30:52;101678.38;;;40.02;22.81
6565;BME280;3316;44.118;27.258;2022-10-31T08:33:18;101684.50;;;39.81;22.30
6565;BME280;3316;44.118;27.258;2022-10-31T08:35:43;101671.97;;;40.01;22.59
6565;BME280;3316;44.118;27.258;2022-10-31T08:38:11;101677.75;;;39.83;22.54
6565;BME280;3316;44.118;27.258;2022-10-31T08:40:37;101664.44;;;40.26;22.02
6565;BME280;3316;44.118;27.258;2022-10-31T08:43:05;101680.91;;;40.79;21.17
6565;BME280;3316;44.118;27.258;2022-10-31T08:45:32;101682.81;;;40.33;21.83
6565;BME280;3316;44.118;27.258;2022-10-31T08:47:59;101639.34;;;40.13;21.80
6565;BME280;3316;44.118;27.258;2022-10-31T08:50:24;101687.56;;;39.86;22.33
6565;BME280;3316;44.118;27.258;2022-10-31T08:52:50;101678.63;;;39.37;22.53
6565;BME280;3316;44.118;27.258;2022-10-31T08:55:15;101670.16;;;39.55;22.58
6565;BME280;3316;44.118;27.258;2022-10-31T08:57:41;101664.41;;;39.64;22.33
6565;BME280;3316;44.118;27.258;2022-10-31T09:00:07;101683.16;;;40.08;22.14
6565;BME280;3316;44.118;27.258;2022-10-31T09:02:33;101680.69;;;40.43;21.76
6565;BME280;3316;44.118;27.258;2022-10-31T09:04:58;101682.09;;;40.99;21.87
6565;BME280;3316;44.118;27.258;2022-10-31T09:07:23;101678.91;;;40.50;22.08
6565;BME280;3316;44.118;27.258;2022-10-31T09:09:49;101680.38;;;40.61;22.22
6565;BME280;3316;44.118;27.258;2022-10-31T09:12:14;101683.97;;;40.16;21.89
6565;BME280;3316;44.118;27.258;2022-10-31T09:14:40;101668.19;;;39.00;23.67
6565;BME280;3316;44.118;27.258;2022-10-31T09:17:05;101678.00;;;39.11;23.26
6565;BME280;3316;44.118;27.258;2022-10-31T09:19:31;101680.91;;;39.26;23.53
6565;BME280;3316;44.118;27.258;2022-10-31T09:21:56;101671.25;;;39.76;22.95
6565;BME280;3316;44.118;27.258;2022-10-31T09:24:22;101672.38;;;39.59;22.74
6565;BME280;3316;44.118;27.258;2022-10-31T09:26:47;101672.78;;;39.40;22.97
6565;BME280;3316;44.118;27.258;2022-10-31T09:29:13;101674.91;;;39.69;23.13
6565;BME280;3316;44.118;27.258;2022-10-31T09:31:38;101671.41;;;40.14;22.22
6565;BME280;3316;44.118;27.258;2022-10-31T09:34:04;101679.31;;;39.78;22.72
6565;BME280;3316;44.118;27.258;2022-10-31T09:36:29;101670.91;;;40.10;22.24
6565;BME280;3316;44.118;27.258;2022-10-31T09:38:54;101673.06;;;39.92;22.64
6565;BME280;3316;44.118;27.258;2022-10-31T09:44:21;101671.03;;;39.39;22.86
6565;BME280;3316;44.118;27.258;2022-10-31T09:47:05;101674.56;;;39.01;23.12
6565;BME280;3316;44.118;27.258;2022-10-31T09:50:21;101664.00;;;39.29;23.41
6565;BME280;3316;44.118;27.258;2022-10-31T09:52:29;101676.13;;;38.87;23.31
6565;BME280;3316;44.118;27.258;2022-10-31T09:55:00;101672.66;;;38.37;23.40
6565;BME280;3316;44.118;27.258;2022-10-31T09:57:34;101669.22;;;38.35;24.04
6565;BME280;3316;44.118;27.258;2022-10-31T10:00:04;101662.28;;;38.07;24.40
6565;BME280;3316;44.118;27.258;2022-10-31T10:02:38;101646.97;;;37.21;24.87
6565;BME280;3316;44.118;27.258;2022-10-31T10:05:14;101659.13;;;36.67;25.50
6565;BME280;3316;44.118;27.258;2022-10-31T10:10:22;101639.22;;;35.40;27.27
6565;BME280;3316;44.118;27.258;2022-10-31T10:18:58;101638.88;;;32.62;30.36
6565;BME280;3316;44.118;27.258;2022-10-31T10:24:25;101631.47;;;30.56;34.14
6565;BME280;3316;44.118;27.258;2022-10-31T10:27:27;101631.38;;;30.34;34.64
6565;BME280;3316;44.118;27.258;2022-10-31T10:30:03;101632.78;;;29.44;36.59
6565;BME280;3316;44.118;27.258;2022-10-31T10:32:43;101626.53;;;28.80;38.01
6565;BME280;3316;44.118;27.258;2022-10-31T10:36:08;101621.69;;;28.34;39.47
6565;BME280;3316;44.118;27.258;2022-10-31T10:40:40;101607.28;;;27.80;41.54
6565;BME280;3316;44.118;27.258;2022-10-31T10:43:22;101613.06;;;27.61;42.93
6565;BME280;3316;44.118;27.258;2022-10-31T10:51:51;101595.72;;;27.37;44.20
6565;BME280;3316;44.118;27.258;2022-10-31T10:54:37;101594.56;;;27.41;44.12
6565;BME280;3316;44.118;27.258;2022-10-31T10:59:55;101574.78;;;27.26;45.06
6565;BME280;3316;44.118;27.258;2022-10-31T11:02:26;101568.44;;;26.85;46.00
6565;BME280;3316;44.118;27.258;2022-10-31T11:04:57;101585.03;;;26.93;46.17
6565;BME280;3316;44.118;27.258;2022-10-31T11:07:23;101570.38;;;26.97;46.03
6565;BME280;3316;44.118;27.258;2022-10-31T11:09:48;101587.38;;;26.99;45.94
6565;BME280;3316;44.118;27.258;2022-10-31T11:13:03;101579.44;;;27.10;46.02
6565;BME280;3316;44.118;27.258;2022-10-31T11:15:32;101581.63;;;27.18;45.31
6565;BME280;3316;44.118;27.258;2022-10-31T11:17:59;101580.47;;;27.22;45.44
6565;BME280;3316;44.118;27.258;2022-10-31T11:20:32;101583.97;;;27.38;44.65
6565;BME280;3316;44.118;27.258;2022-10-31T11:23:26;101574.69;;;27.42;43.98
6565;BME280;3316;44.118;27.258;2022-10-31T11:25:59;101579.22;;;27.27;44.23
6565;BME280;3316;44.118;27.258;2022-10-31T11:28:26;101575.56;;;27.28;44.34
6565;BME280;3316;44.118;27.258;2022-10-31T11:30:56;101574.69;;;27.14;44.38
6565;BME280;3316;44.118;27.258;2022-10-31T11:33:26;101552.47;;;27.23;43.61
6565;BME280;3316;44.118;27.258;2022-10-31T11:35:53;101574.97;;;27.23;43.53
6565;BME280;3316;44.118;27.258;2022-10-31T11:38:22;101564.75;;;27.14;44.63
6565;BME280;3316;44.118;27.258;2022-10-31T11:40:53;101559.75;;;27.08;44.58
6565;BME280;3316;44.118;27.258;2022-10-31T11:43:20;101545.84;;;27.00;44.95
6565;BME280;3316;44.118;27.258;2022-10-31T11:45:47;101566.78;;;27.11;45.17
6565;BME280;3316;44.118;27.258;2022-10-31T11:48:18;101560.91;;;27.04;45.70
6565;BME280;3316;44.118;27.258;2022-10-31T11:50:51;101562.94;;;26.73;46.39
6565;BME280;3316;44.118;27.258;2022-10-31T11:53:28;101562.50;;;26.07;47.96
6565;BME280;3316;44.118;27.258;2022-10-31T11:56:04;101574.28;;;26.06;48.60
6565;BME280;3316;44.118;27.258;2022-10-31T11:58:30;101559.84;;;26.21;48.08
6565;BME280;3316;44.118;27.258;2022-10-31T12:00:57;101572.44;;;26.50;46.92
6565;BME280;3316;44.118;27.258;2022-10-31T12:08:29;101561.78;;;26.77;46.48
6565;BME280;3316;44.118;27.258;2022-10-31T12:13:43;101566.81;;;26.83;48.51
6565;BME280;3316;44.118;27.258;2022-10-31T12:22:05;101566.72;;;26.70;49.00
6565;BME280;3316;44.118;27.258;2022-10-31T12:27:27;101560.78;;;26.64;48.95
6565;BME280;3316;44.118;27.258;2022-10-31T12:35:38;101545.28;;;26.09;51.10
6565;BME280;3316;44.118;27.258;2022-10-31T12:38:34;101561.69;;;26.05;52.35
6565;BME280;3316;44.118;27.258;2022-10-31T12:59:50;101574.50;;;25.40;58.15
6565;BME280;3316;44.118;27.258;2022-10-31T13:02:25;101560.13;;;25.24;60.10
6565;BME280;3316;44.118;27.258;2022-10-31T13:05:02;101569.16;;;25.23;61.89
6565;BME280;3316;44.118;27.258;2022-10-31T13:07:34;101572.28;;;25.16;61.64
6565;BME280;3316;44.118;27.258;2022-10-31T13:10:30;101571.56;;;25.12;61.89
6565;BME280;3316;44.118;27.258;2022-10-31T13:13:02;101560.66;;;25.15;61.05
6565;BME280;3316;44.118;27.258;2022-10-31T13:15:35;101563.94;;;25.05;62.17
6565;BME280;3316;44.118;27.258;2022-10-31T13:18:12;101567.41;;;25.22;62.37
6565;BME280;3316;44.118;27.258;2022-10-31T13:20:44;101563.50;;;25.12;63.46
6565;BME280;3316;44.118;27.258;2022-10-31T13:25:46;101569.97;;;24.77;65.07
6565;BME280;3316;44.118;27.258;2022-10-31T13:30:42;101562.38;;;24.51;67.39
6565;BME280;3316;44.118;27.258;2022-10-31T13:33:18;101573.91;;;24.20;70.05
6565;BME280;3316;44.118;27.258;2022-10-31T13:44:12;101572.25;;;23.99;74.18
6565;BME280;3316;44.118;27.258;2022-10-31T13:46:40;101562.94;;;23.89;75.14
6565;BME280;3316;44.118;27.258;2022-10-31T13:52:25;101562.25;;;23.67;76.14
6565;BME280;3316;44.118;27.258;2022-10-31T13:54:52;101556.78;;;23.51;77.76
6565;BME280;3316;44.118;27.258;2022-10-31T13:57:38;101550.03;;;23.43;78.14
6565;BME280;3316;44.118;27.258;2022-10-31T14:02:36;101558.84;;;23.46;77.27
6565;BME280;3316;44.118;27.258;2022-10-31T14:05:31;101564.66;;;23.54;78.06
6565;BME280;3316;44.118;27.258;2022-10-31T14:08:00;101562.31;;;23.48;78.18
6565;BME280;3316;44.118;27.258;2022-10-31T14:12:52;101562.22;;;23.31;81.39
6565;BME280;3316;44.118;27.258;2022-10-31T14:15:22;101556.13;;;23.28;80.19
6565;BME280;3316;44.118;27.258;2022-10-31T14:18:01;101532.25;;;23.03;81.10
6565;BME280;3316;44.118;27.258;2022-10-31T14:20:53;101569.28;;;23.15;81.71
6565;BME280;3316;44.118;27.258;2022-10-31T14:26:17;101559.59;;;22.92;83.16
6565;BME280;3316;44.118;27.258;2022-10-31T14:28:44;101566.66;;;22.95;84.73
6565;BME280;3316;44.118;27.258;2022-10-31T14:31:43;101562.97;;;22.97;85.85
6565;BME280;3316;44.118;27.258;2022-10-31T14:34:34;101572.13;;;22.92;87.15
6565;BME280;3316;44.118;27.258;2022-10-31T14:37:30;101561.25;;;22.76;88.45
6565;BME280;3316;44.118;27.258;2022-10-31T14:43:39;101565.13;;;22.49;90.39
6565;BME280;3316;44.118;27.258;2022-10-31T14:46:10;101557.84;;;22.33;91.17
6565;BME280;3316;44.118;27.258;2022-10-31T14:51:24;101561.06;;;22.00;93.72
6565;BME280;3316;44.118;27.258;2022-10-31T14:53:53;101563.13;;;21.94;93.31
6565;BME280;3316;44.118;27.258;2022-10-31T14:56:25;101510.81;;;21.64;93.87
6565;BME280;3316;44.118;27.258;2022-10-31T14:58:52;101565.44;;;21.81;93.97
6565;BME280;3316;44.118;27.258;2022-10-31T15:01:24;101571.34;;;21.68;94.68
6565;BME280;3316;44.118;27.258;2022-10-31T15:03:55;101576.03;;;21.63;95.80
6565;BME280;3316;44.118;27.258;2022-10-31T15:06:23;101571.09;;;21.52;97.42
6565;BME280;3316;44.118;27.258;2022-10-31T15:08:51;101582.00;;;21.48;98.10
6565;BME280;3316;44.118;27.258;2022-10-31T15:11:21;101571.72;;;21.37;98.88
6565;BME280;3316;44.118;27.258;2022-10-31T15:13:49;101574.41;;;21.37;99.17
6565;BME280;3316;44.118;27.258;2022-10-31T15:16:21;101569.72;;;21.42;99.07
6565;BME280;3316;44.118;27.258;2022-10-31T15:18:59;101574.97;;;21.45;98.83
6565;BME280;3316;44.118;27.258;2022-10-31T15:21:27;101558.31;;;21.15;99.97
6565;BME280;3316;44.118;27.258;2022-10-31T15:23:55;101577.22;;;21.11;100.00
6565;BME280;3316;44.118;27.258;2022-10-31T15:26:25;101584.44;;;21.09;100.00